KLOU/LOU METAR and TAF weather

Enter ICAO airport designator
Station Type Date Time Source
KLOU METAR 2019/12/06 13:53 UTC NOAA

KLOU 061353Z 17005KT 10SM -RA FEW050 BKN060 OVC090 08/06 A3012 RMK AO2 SLP201 P0003 T00780056


Station Type Date Time Source
KLOU Decoded METAR 2019/12/06 13:53 UTC NOAA

BOWMAN FIELD, KY, United States (KLOU) 38-14N 085-40W 164M
Dec 06, 2019 - 08:53 AM EST / 2019.12.06 1353 UTC
Wind: from the S (170 degrees) at 6 MPH (5 KT):0
Visibility: 10 mile(s):0
Sky conditions: overcast
Weather: light rain
Precipitation last hour: 0.03 inches
Temperature: 46.0 F (7.8 C)
Dew Point: 42.1 F (5.6 C)
Relative Humidity: 85%
Pressure (altimeter): 30.12 in. Hg (1019 hPa)
ob: KLOU 061353Z 17005KT 10SM -RA FEW050 BKN060 OVC090 08/06 A3012 RMK AO2 SLP201 P0003 T00780056
cycle: 14

Station Type Date Time Source
KLOU TAF UTC NOAA

Error!

Example: see airport list